Time;durP1;ratioP1;P1;durP2;ratioP2;P2;SDS_P1;SDS_P2;PMS_P1;PMS_P2;Temp;Humidity;BMP_temperature;BMP_pressure;BME280_temperature;BME280_humidity;BME280_pressure;Samples;Min_cycle;Max_cycle;Signal;HPM_P1;HPM_P2
2024/01/23 00:01:48;;;;;;;673.85;620.50;;;6.20;99.90;;;;;;5003858;28;20061;-76
2024/01/23 00:04:14;;;;;;;538.90;499.95;;;6.20;99.90;;;;;;5002313;28;20073;-76
2024/01/23 00:06:40;;;;;;;613.03;564.78;;;6.20;99.90;;;;;;4999815;28;20133;-76
2024/01/23 00:09:06;;;;;;;708.65;651.47;;;6.20;99.90;;;;;;4994400;28;20054;-76
2024/01/23 00:11:31;;;;;;;676.97;622.50;;;6.20;99.90;;;;;;5002456;28;20488;-76
2024/01/23 00:13:57;;;;;;;540.85;499.50;;;6.20;99.90;;;;;;5002120;28;20042;-76
2024/01/23 00:16:23;;;;;;;563.20;521.08;;;6.10;99.90;;;;;;4986176;28;20042;-77
2024/01/23 00:18:48;;;;;;;562.70;520.95;;;6.10;99.90;;;;;;5002818;28;20046;-77
2024/01/23 00:21:14;;;;;;;564.03;520.40;;;6.10;99.90;;;;;;5003168;28;20420;-76
2024/01/23 00:23:40;;;;;;;542.30;502.77;;;6.10;99.90;;;;;;4994892;28;20124;-76
2024/01/23 00:26:05;;;;;;;672.78;620.35;;;6.00;99.90;;;;;;5001932;28;20129;-76
2024/01/23 00:28:31;;;;;;;673.50;620.28;;;6.00;99.90;;;;;;5001849;28;20058;-76
2024/01/23 00:30:57;;;;;;;707.15;650.30;;;6.00;99.90;;;;;;5034546;28;20065;-76
2024/01/23 00:33:22;;;;;;;642.05;593.22;;;6.00;99.90;;;;;;4999542;28;20034;-76
2024/01/23 00:35:48;;;;;;;735.42;674.42;;;6.00;99.90;;;;;;5001990;28;20045;-76
2024/01/23 00:38:14;;;;;;;648.95;599.00;;;6.00;99.90;;;;;;5001020;28;20046;-76
2024/01/23 00:40:39;;;;;;;588.40;542.85;;;6.10;99.90;;;;;;4993692;28;20045;-76
2024/01/23 00:43:06;;;;;;;684.28;630.08;;;6.00;99.90;;;;;;4988177;28;20057;-76
2024/01/23 00:45:32;;;;;;;584.63;540.10;;;6.10;99.90;;;;;;4982672;28;20051;-77
2024/01/23 00:47:59;;;;;;;575.85;532.65;;;6.10;99.90;;;;;;4985265;28;20045;-76
2024/01/23 00:50:25;;;;;;;610.70;564.20;;;6.10;99.90;;;;;;4985395;28;20046;-76
2024/01/23 00:52:51;;;;;;;628.35;579.53;;;6.10;99.90;;;;;;4986460;28;20276;-76
2024/01/23 00:55:17;;;;;;;563.42;522.45;;;6.10;99.90;;;;;;4983606;28;20149;-76
2024/01/23 00:57:43;;;;;;;638.30;590.72;;;6.10;99.90;;;;;;4992360;28;20133;-76
2024/01/23 01:00:09;;;;;;;550.65;509.48;;;6.10;99.90;;;;;;4990174;28;20641;-76
2024/01/23 01:02:35;;;;;;;619.45;571.58;;;6.10;99.90;;;;;;4986132;28;20045;-76
2024/01/23 01:05:01;;;;;;;542.00;503.05;;;6.10;99.90;;;;;;5006512;28;20121;-76
2024/01/23 01:07:27;;;;;;;561.50;519.13;;;6.10;99.90;;;;;;4994281;28;20511;-76
2024/01/23 01:09:52;;;;;;;564.40;522.55;;;6.10;99.90;;;;;;4985865;28;20054;-76
2024/01/23 01:12:18;;;;;;;539.70;499.23;;;6.10;99.90;;;;;;4987462;28;20089;-76
2024/01/23 01:14:44;;;;;;;717.45;657.50;;;6.10;99.90;;;;;;4969261;28;20605;-76
2024/01/23 01:17:09;;;;;;;674.72;619.67;;;6.10;99.90;;;;;;5003506;28;20042;-76
2024/01/23 01:19:35;;;;;;;584.25;540.40;;;6.00;99.90;;;;;;5038330;28;20540;-76
2024/01/23 01:22:01;;;;;;;609.53;563.28;;;6.00;99.90;;;;;;4975398;28;20117;-76
2024/01/23 01:24:27;;;;;;;615.75;566.65;;;6.00;99.90;;;;;;5002669;28;20106;-76
2024/01/23 01:26:52;;;;;;;708.28;652.30;;;6.00;99.90;;;;;;4994142;28;20102;-76
2024/01/23 01:29:18;;;;;;;591.35;545.90;;;5.90;99.90;;;;;;4973447;28;20154;-76
2024/01/23 01:31:44;;;;;;;552.80;512.72;;;5.90;99.90;;;;;;5004215;28;20053;-76
2024/01/23 01:34:09;;;;;;;655.88;604.08;;;5.90;99.90;;;;;;5004133;28;20512;-76
2024/01/23 01:36:36;;;;;;;520.20;482.50;;;5.80;99.90;;;;;;4996362;28;20133;-76
2024/01/23 01:39:03;;;;;;;654.13;604.38;;;5.80;99.90;;;;;;4981550;28;20183;-76
2024/01/23 01:41:29;;;;;;;673.50;619.67;;;5.80;99.90;;;;;;4985601;28;20046;-76
2024/01/23 01:43:55;;;;;;;553.85;512.10;;;5.80;99.90;;;;;;4985922;28;20110;-76
2024/01/23 01:46:23;;;;;;;590.33;547.00;;;5.80;99.90;;;;;;4985992;28;20043;-76
2024/01/23 01:48:49;;;;;;;685.00;631.13;;;5.80;99.90;;;;;;4985377;28;20083;-76
2024/01/23 01:51:20;;;;;;;709.42;652.47;;;5.70;99.90;;;;;;4986247;28;20053;-76
2024/01/23 01:53:46;;;;;;;529.95;491.23;;;6.10;99.90;;;;;;4986279;28;20455;-76
2024/01/23 01:56:12;;;;;;;709.33;651.28;;;5.70;99.90;;;;;;4985418;28;20409;-76
2024/01/23 01:58:40;;;;;;;882.28;802.72;;;5.80;99.90;;;;;;4986140;28;20046;-77
2024/01/23 02:01:05;;;;;;;606.65;561.63;;;5.60;99.90;;;;;;4999715;28;20054;-76
2024/01/23 02:03:31;;;;;;;736.75;676.53;;;5.70;99.90;;;;;;5003760;28;20102;-76
2024/01/23 02:05:59;;;;;;;675.03;622.75;;;5.70;99.90;;;;;;5006084;28;20457;-76
2024/01/23 02:08:24;;;;;;;756.85;693.45;;;5.60;99.90;;;;;;4987542;28;20045;-76
2024/01/23 02:10:52;;;;;;;875.53;795.17;;;5.70;99.90;;;;;;5005425;28;20129;-77
2024/01/23 02:13:18;;;;;;;721.55;663.53;;;5.60;99.90;;;;;;5005673;28;20045;-76
2024/01/23 02:15:43;;;;;;;814.47;746.22;;;5.60;99.90;;;;;;4999947;28;20363;-76
2024/01/23 02:18:09;;;;;;;865.45;789.40;;;5.60;99.90;;;;;;4985600;28;20482;-76
2024/01/23 02:20:35;;;;;;;672.63;620.35;;;5.60;99.90;;;;;;4993575;28;20154;-76
2024/01/23 02:23:00;;;;;;;669.08;617.90;;;5.60;99.90;;;;;;5005726;28;20092;-76
2024/01/23 02:25:26;;;;;;;729.08;670.33;;;5.60;99.90;;;;;;5003365;28;20050;-77
2024/01/23 02:27:53;;;;;;;791.75;727.28;;;6.10;99.90;;;;;;5004424;28;20138;-76
2024/01/23 02:30:19;;;;;;;734.75;677.10;;;5.60;99.90;;;;;;5004823;28;20054;-76
2024/01/23 02:32:45;;;;;;;770.55;706.33;;;5.50;99.90;;;;;;5003624;28;20050;-76
2024/01/23 02:35:12;;;;;;;719.45;662.25;;;5.60;99.90;;;;;;5004206;28;20579;-76
2024/01/23 02:37:38;;;;;;;767.55;705.17;;;5.60;99.90;;;;;;5003235;28;20493;-76
2024/01/23 02:40:05;;;;;;;852.92;778.97;;;5.60;99.90;;;;;;5004951;28;20106;-76
2024/01/23 02:42:32;;;;;;;665.45;614.35;;;5.60;99.90;;;;;;4986861;28;20417;-76
2024/01/23 02:44:58;;;;;;;969.75;872.85;;;5.70;99.90;;;;;;5005016;28;20119;-76
2024/01/23 02:47:23;;;;;;;714.42;655.70;;;5.70;99.90;;;;;;5002967;28;20726;-77
2024/01/23 02:49:50;;;;;;;890.10;809.20;;;5.80;99.90;;;;;;5036932;28;20053;-76
2024/01/23 02:52:15;;;;;;;795.25;727.85;;;5.90;99.90;;;;;;5026298;28;20044;-76
2024/01/23 02:54:41;;;;;;;716.72;657.85;;;5.90;99.90;;;;;;5007585;28;20584;-77
2024/01/23 02:57:07;;;;;;;812.28;743.05;;;5.90;99.90;;;;;;4987098;28;20122;-76
2024/01/23 02:59:32;;;;;;;694.80;635.38;;;5.90;99.90;;;;;;4985316;28;20490;-77
2024/01/23 03:01:58;;;;;;;712.60;652.97;;;5.90;99.90;;;;;;4984864;28;20042;-76
2024/01/23 03:04:24;;;;;;;562.95;521.08;;;6.00;99.90;;;;;;4985010;28;20054;-76
2024/01/23 03:06:49;;;;;;;615.03;568.20;;;6.00;99.90;;;;;;4985346;28;20121;-76
2024/01/23 03:09:15;;;;;;;634.13;584.17;;;6.00;99.90;;;;;;4984149;28;20382;-76
2024/01/23 03:11:41;;;;;;;658.95;607.10;;;6.00;99.90;;;;;;4985655;28;20133;-76
2024/01/23 03:14:07;;;;;;;621.53;571.70;;;5.90;99.90;;;;;;4984823;28;20489;-77
2024/01/23 03:16:32;;;;;;;578.50;533.55;;;6.00;99.90;;;;;;4986728;28;20038;-76
2024/01/23 03:18:58;;;;;;;718.35;661.22;;;6.00;99.90;;;;;;4985361;28;20481;-76
2024/01/23 03:21:24;;;;;;;588.65;544.22;;;6.00;99.90;;;;;;4984877;28;20062;-77
2024/01/23 03:23:50;;;;;;;664.35;611.13;;;6.00;99.90;;;;;;4985760;28;20036;-76
2024/01/23 03:26:15;;;;;;;651.03;600.38;;;6.00;99.90;;;;;;4988959;28;20478;-76
2024/01/23 03:28:42;;;;;;;695.33;638.10;;;6.10;99.90;;;;;;5001997;28;20050;-76
2024/01/23 03:31:07;;;;;;;674.70;620.00;;;6.10;99.90;;;;;;5003082;28;21918;-76
2024/01/23 03:33:33;;;;;;;633.08;580.58;;;6.10;99.90;;;;;;5004033;28;20044;-77
2024/01/23 03:35:59;;;;;;;591.72;546.10;;;6.10;99.90;;;;;;5005603;28;20129;-76
2024/01/23 03:38:24;;;;;;;661.92;608.67;;;6.10;99.90;;;;;;5003674;28;20046;-76
2024/01/23 03:40:50;;;;;;;721.95;661.83;;;6.10;99.90;;;;;;5002679;28;20489;-76
2024/01/23 03:43:16;;;;;;;547.25;506.55;;;6.10;99.90;;;;;;5004363;28;20045;-76
2024/01/23 03:45:42;;;;;;;617.28;568.65;;;6.10;99.90;;;;;;5005165;28;20508;-77
2024/01/23 03:48:07;;;;;;;679.05;623.90;;;6.10;99.90;;;;;;4984245;28;20787;-76
2024/01/23 03:50:33;;;;;;;700.47;644.15;;;6.10;99.90;;;;;;5000022;28;20153;-77
2024/01/23 03:52:59;;;;;;;545.00;503.30;;;6.10;99.90;;;;;;4990731;28;20076;-76
2024/01/23 03:55:25;;;;;;;533.63;493.45;;;6.10;99.90;;;;;;4984332;28;20042;-76
2024/01/23 03:57:51;;;;;;;764.05;700.38;;;6.10;99.90;;;;;;4984644;28;20892;-76
2024/01/23 04:00:18;;;;;;;666.70;615.25;;;6.10;99.90;;;;;;4993801;28;20510;-76
2024/01/23 04:02:43;;;;;;;620.65;573.70;;;6.20;99.90;;;;;;4990097;28;20394;-76
2024/01/23 04:05:10;;;;;;;723.25;662.13;;;6.20;99.90;;;;;;4997029;28;20071;-77
2024/01/23 04:07:35;;;;;;;569.97;525.10;;;6.30;99.90;;;;;;5028180;28;20095;-76
2024/01/23 04:10:02;;;;;;;725.25;663.38;;;6.30;99.90;;;;;;5001746;28;20054;-76
2024/01/23 04:12:28;;;;;;;666.05;613.63;;;6.30;99.90;;;;;;5002888;28;20045;-76
2024/01/23 04:14:54;;;;;;;620.40;570.83;;;6.30;99.90;;;;;;5004087;28;20052;-77
2024/01/23 04:17:19;;;;;;;649.47;597.95;;;6.30;99.90;;;;;;5001958;28;20489;-77
2024/01/23 04:19:45;;;;;;;696.75;640.05;;;6.30;99.90;;;;;;5001966;28;20058;-77
2024/01/23 04:22:11;;;;;;;785.70;719.83;;;6.40;99.90;;;;;;5001904;28;20046;-77
2024/01/23 04:24:38;;;;;;;645.10;594.25;;;6.40;99.90;;;;;;5000061;28;20054;-76
2024/01/23 04:27:04;;;;;;;742.30;681.55;;;6.40;99.90;;;;;;5003293;28;20041;-76
2024/01/23 04:29:30;;;;;;;575.45;529.25;;;6.40;99.90;;;;;;5000897;28;20455;-76
2024/01/23 04:31:56;;;;;;;612.63;565.15;;;6.40;99.90;;;;;;5001144;28;20050;-76
2024/01/23 04:34:21;;;;;;;741.53;681.08;;;6.40;99.90;;;;;;4993370;28;20046;-76
2024/01/23 04:36:48;;;;;;;672.58;619.63;;;6.50;99.90;;;;;;4993836;28;20042;-77
2024/01/23 04:39:14;;;;;;;641.05;589.63;;;6.50;99.90;;;;;;4988754;28;20057;-76
2024/01/23 04:41:40;;;;;;;672.20;618.00;;;6.50;99.90;;;;;;4988645;28;20065;-76
2024/01/23 04:44:06;;;;;;;620.95;571.90;;;6.50;99.90;;;;;;4987827;28;20442;-76
2024/01/23 04:46:31;;;;;;;721.78;660.85;;;6.50;99.90;;;;;;5003477;28;20103;-76
2024/01/23 04:48:57;;;;;;;685.03;629.95;;;6.60;99.90;;;;;;5039386;28;20054;-76
2024/01/23 04:51:23;;;;;;;652.33;597.65;;;6.60;99.90;;;;;;4987863;28;20049;-76
2024/01/23 04:53:52;;;;;;;726.30;666.40;;;6.60;99.90;;;;;;4998533;28;20448;-76
2024/01/23 04:56:19;;;;;;;629.08;580.58;;;6.60;99.90;;;;;;5005484;28;20057;-77
2024/01/23 04:58:45;;;;;;;740.95;678.60;;;6.60;99.90;;;;;;4997199;28;20038;-76
2024/01/23 05:01:11;;;;;;;632.85;583.97;;;6.60;99.90;;;;;;5002204;28;20064;-76
2024/01/23 05:03:37;;;;;;;882.30;803.92;;;6.60;99.90;;;;;;5007381;28;20038;-77
2024/01/23 05:06:04;;;;;;;624.72;574.88;;;6.60;99.90;;;;;;5005505;28;20414;-77
2024/01/23 05:08:30;;;;;;;552.80;510.92;;;6.60;99.90;;;;;;5000648;28;21311;-76
2024/01/23 05:10:56;;;;;;;790.25;720.80;;;6.70;99.90;;;;;;4990301;28;20128;-77
2024/01/23 05:13:22;;;;;;;596.00;549.30;;;6.70;99.90;;;;;;5001586;28;20473;-77
2024/01/23 05:15:48;;;;;;;829.63;752.65;;;6.70;99.90;;;;;;4976747;28;20061;-77
2024/01/23 05:18:13;;;;;;;732.70;672.05;;;6.70;99.90;;;;;;4981066;28;20061;-77
2024/01/23 05:20:39;;;;;;;657.78;601.47;;;6.70;99.90;;;;;;5004672;28;20053;-76
2024/01/23 05:23:05;;;;;;;524.97;485.15;;;6.70;99.90;;;;;;5004047;28;20095;-77
2024/01/23 05:25:31;;;;;;;665.10;610.92;;;6.70;99.90;;;;;;4994948;28;20494;-76
2024/01/23 05:27:57;;;;;;;564.20;521.60;;;6.80;99.90;;;;;;4992070;28;20896;-77
2024/01/23 05:30:23;;;;;;;671.15;617.10;;;6.70;99.90;;;;;;5029034;28;20157;-76
2024/01/23 05:32:50;;;;;;;546.53;503.75;;;6.70;99.90;;;;;;4997767;28;20070;-77
2024/01/23 05:35:16;;;;;;;754.00;686.67;;;6.70;99.90;;;;;;5000366;28;20056;-76
2024/01/23 05:37:43;;;;;;;614.58;565.15;;;6.70;99.90;;;;;;4994066;28;20046;-76
2024/01/23 05:40:12;;;;;;;644.38;590.90;;;6.70;99.90;;;;;;4987420;28;20049;-76
2024/01/23 05:42:38;;;;;;;678.95;624.40;;;6.60;99.90;;;;;;5004954;28;20077;-76
2024/01/23 05:45:04;;;;;;;701.17;644.65;;;6.60;99.90;;;;;;4992609;28;20046;-77
2024/01/23 05:47:30;;;;;;;635.85;587.17;;;6.60;99.90;;;;;;5004502;28;20486;-76
2024/01/23 05:49:56;;;;;;;804.25;730.75;;;6.50;99.90;;;;;;5003772;28;20044;-77
2024/01/23 05:52:21;;;;;;;678.35;623.25;;;6.50;99.90;;;;;;5005483;28;20053;-76
2024/01/23 05:54:47;;;;;;;619.90;570.25;;;6.50;99.90;;;;;;4990295;28;20081;-76
2024/01/23 05:57:14;;;;;;;692.95;634.78;;;6.50;99.90;;;;;;4997455;28;20050;-76
2024/01/23 05:59:40;;;;;;;677.03;621.45;;;6.40;99.90;;;;;;4985820;28;20058;-76
2024/01/23 06:02:06;;;;;;;786.85;719.47;;;6.40;99.90;;;;;;4995603;28;20182;-76
2024/01/23 06:04:32;;;;;;;736.97;676.10;;;6.30;99.90;;;;;;5005797;28;20054;-76
2024/01/23 06:06:58;;;;;;;851.85;775.15;;;6.30;99.90;;;;;;5000388;28;20555;-76
2024/01/23 06:09:24;;;;;;;788.03;719.83;;;6.30;99.90;;;;;;4997349;28;20046;-76
2024/01/23 06:11:51;;;;;;;772.85;707.45;;;6.30;99.90;;;;;;4985949;28;20046;-76
2024/01/23 06:14:17;;;;;;;734.83;675.55;;;6.30;99.90;;;;;;5003856;28;20134;-76
2024/01/23 06:16:43;;;;;;;808.42;739.85;;;6.30;99.90;;;;;;5006078;28;20107;-76
2024/01/23 06:19:09;;;;;;;800.13;728.60;;;6.20;99.90;;;;;;5004072;28;20042;-76
2024/01/23 06:21:35;;;;;;;775.05;707.70;;;6.20;99.90;;;;;;5004928;28;20050;-76
2024/01/23 06:24:01;;;;;;;840.55;764.72;;;6.10;99.90;;;;;;5004489;28;20053;-76
2024/01/23 06:26:27;;;;;;;848.50;768.92;;;6.00;99.90;;;;;;4995289;28;20401;-76
2024/01/23 06:28:52;;;;;;;753.33;690.35;;;6.00;99.90;;;;;;4985135;28;20050;-77
2024/01/23 06:31:25;;;;;;;827.95;753.78;;;6.00;99.90;;;;;;4974640;28;20125;-76
2024/01/23 06:33:51;;;;;;;775.47;710.10;;;5.90;99.90;;;;;;4993198;28;20054;-76
2024/01/23 06:36:17;;;;;;;829.78;757.25;;;5.90;99.90;;;;;;4998932;28;20405;-76
2024/01/23 06:38:43;;;;;;;871.20;792.95;;;5.80;99.90;;;;;;5001852;28;20470;-76
2024/01/23 06:41:08;;;;;;;795.28;729.15;;;5.80;99.90;;;;;;4977693;28;20061;-76
2024/01/23 06:43:34;;;;;;;911.20;826.60;;;5.80;99.90;;;;;;4988122;28;20042;-76
2024/01/23 06:46:00;;;;;;;845.40;769.63;;;5.80;99.90;;;;;;4979617;28;20047;-76
2024/01/23 06:48:25;;;;;;;808.00;739.65;;;5.70;99.90;;;;;;4994310;28;20069;-76
2024/01/23 06:50:51;;;;;;;924.55;836.72;;;5.70;99.90;;;;;;5004045;28;20492;-76
2024/01/23 06:53:17;;;;;;;867.05;786.45;;;5.70;99.90;;;;;;5005944;28;20057;-76
2024/01/23 06:55:43;;;;;;;857.38;783.05;;;5.60;99.90;;;;;;5004684;28;20042;-76
2024/01/23 06:58:08;;;;;;;815.08;744.88;;;5.60;99.90;;;;;;4983193;28;20042;-76
2024/01/23 07:00:34;;;;;;;804.72;736.53;;;5.60;99.90;;;;;;4985707;28;20043;-76
2024/01/23 07:03:00;;;;;;;830.53;757.70;;;5.50;99.90;;;;;;4993014;28;20038;-76
2024/01/23 07:05:25;;;;;;;842.38;769.45;;;5.50;99.90;;;;;;4988718;28;20047;-76
2024/01/23 07:07:52;;;;;;;719.72;662.33;;;5.50;99.90;;;;;;4991484;28;20481;-76
2024/01/23 07:10:19;;;;;;;753.10;691.95;;;5.40;99.90;;;;;;4984391;28;20400;-76
2024/01/23 07:12:44;;;;;;;765.00;702.97;;;5.40;99.90;;;;;;5002870;28;20053;-76
2024/01/23 07:15:10;;;;;;;751.58;691.15;;;5.40;99.90;;;;;;4989301;28;20107;-76
2024/01/23 07:17:36;;;;;;;773.83;709.90;;;5.40;99.90;;;;;;4994997;28;20066;-76
2024/01/23 07:20:02;;;;;;;723.08;666.17;;;5.30;99.90;;;;;;4992964;28;20054;-76
2024/01/23 07:22:28;;;;;;;761.53;699.20;;;5.30;99.90;;;;;;4996196;28;20751;-76
2024/01/23 07:24:54;;;;;;;754.40;692.50;;;5.30;99.90;;;;;;5002473;28;20046;-76
2024/01/23 07:27:20;;;;;;;727.97;669.75;;;5.30;99.90;;;;;;5000887;28;20079;-76
2024/01/23 07:29:46;;;;;;;700.78;645.22;;;5.20;99.90;;;;;;5000699;28;20072;-76
2024/01/23 07:32:12;;;;;;;737.92;678.28;;;5.20;99.90;;;;;;5000034;28;20050;-76
2024/01/23 07:34:37;;;;;;;725.00;667.20;;;5.20;99.90;;;;;;5000883;28;20179;-76
2024/01/23 07:37:03;;;;;;;813.67;745.58;;;5.20;99.90;;;;;;4996167;28;20150;-76
2024/01/23 07:39:29;;;;;;;773.25;709.70;;;5.20;99.90;;;;;;4997729;28;20148;-75
2024/01/23 07:41:55;;;;;;;715.58;658.88;;;5.20;99.90;;;;;;4996179;28;20138;-76
2024/01/23 07:44:21;;;;;;;786.42;720.72;;;5.20;99.90;;;;;;5002559;28;20503;-77
2024/01/23 07:46:48;;;;;;;804.20;735.13;;;5.80;99.90;;;;;;4995134;28;20046;-77
2024/01/23 07:49:14;;;;;;;755.58;693.60;;;5.30;99.90;;;;;;4987061;28;20208;-77
2024/01/23 07:51:50;;;;;;;790.08;724.50;;;5.30;99.90;;;;;;5028081;28;20064;-76
2024/01/23 07:54:16;;;;;;;762.67;699.78;;;5.30;99.90;;;;;;4992336;28;20117;-77
2024/01/23 07:56:42;;;;;;;712.03;655.90;;;5.30;99.90;;;;;;5003400;28;20046;-76
2024/01/23 07:59:07;;;;;;;838.40;765.60;;;5.30;99.90;;;;;;4991873;28;20050;-76
2024/01/23 08:01:33;;;;;;;756.80;694.97;;;5.30;99.90;;;;;;5003117;28;20049;-77
2024/01/23 08:03:59;;;;;;;760.85;699.58;;;5.30;99.90;;;;;;5014993;28;20048;-76
2024/01/23 08:06:25;;;;;;;755.72;694.05;;;5.30;99.90;;;;;;4975348;28;20054;-77
2024/01/23 08:08:51;;;;;;;772.78;708.42;;;5.30;99.90;;;;;;4974257;28;20471;-76
2024/01/23 08:11:17;;;;;;;757.80;696.50;;;5.30;99.90;;;;;;4967723;28;20051;-77
2024/01/23 08:13:43;;;;;;;793.17;727.10;;;5.30;99.90;;;;;;4965761;28;20065;-76
2024/01/23 08:16:10;;;;;;;740.72;681.92;;;5.30;99.90;;;;;;4966407;28;20489;-75
2024/01/23 08:18:37;;;;;;;839.88;767.75;;;5.30;99.90;;;;;;4969230;28;20042;-75
2024/01/23 08:21:04;;;;;;;824.05;752.65;;;5.30;99.90;;;;;;4988760;28;20046;-76
2024/01/23 08:23:29;;;;;;;739.67;681.10;;;5.30;99.90;;;;;;4995997;28;20042;-76
2024/01/23 08:25:55;;;;;;;797.08;733.03;;;5.30;99.90;;;;;;4997704;28;20057;-76
2024/01/23 08:28:23;;;;;;;725.17;667.55;;;5.30;99.90;;;;;;4982943;28;20081;-76
2024/01/23 08:30:49;;;;;;;709.60;654.53;;;5.30;99.90;;;;;;4994161;28;20111;-76
2024/01/23 08:33:18;;;;;;;699.05;644.67;;;5.40;99.90;;;;;;4983134;28;20070;-76
2024/01/23 08:35:44;;;;;;;702.78;648.03;;;5.30;99.90;;;;;;4992175;28;20416;-76
2024/01/23 08:38:10;;;;;;;740.88;681.45;;;5.30;99.90;;;;;;4980022;28;20042;-76
2024/01/23 08:40:37;;;;;;;804.45;738.42;;;5.30;99.90;;;;;;5000049;28;20046;-75
2024/01/23 08:43:04;;;;;;;801.65;734.75;;;5.40;99.90;;;;;;4975071;28;20449;-77
2024/01/23 08:45:30;;;;;;;776.60;712.10;;;5.40;99.90;;;;;;4992503;28;20547;-75
2024/01/23 08:47:55;;;;;;;799.97;732.65;;;5.40;99.90;;;;;;4983540;28;20069;-75
2024/01/23 08:50:21;;;;;;;855.58;780.53;;;5.40;99.90;;;;;;4982264;28;20133;-76
2024/01/23 08:52:48;;;;;;;883.38;805.20;;;5.40;99.90;;;;;;4993083;28;20069;-76
2024/01/23 08:55:14;;;;;;;829.33;758.33;;;5.40;99.90;;;;;;5001108;28;20050;-75
2024/01/23 08:57:40;;;;;;;737.70;677.78;;;5.50;99.90;;;;;;4983646;28;20038;-74
2024/01/23 09:00:08;;;;;;;901.53;814.13;;;5.50;99.90;;;;;;4983336;28;20058;-75
2024/01/23 09:02:33;;;;;;;788.80;722.40;;;5.50;99.90;;;;;;4995717;28;20053;-75
2024/01/23 09:04:59;;;;;;;824.58;752.22;;;5.50;99.90;;;;;;5003556;28;20050;-75
2024/01/23 09:07:25;;;;;;;835.38;764.28;;;5.50;99.90;;;;;;4989006;28;20515;-75
2024/01/23 09:09:51;;;;;;;753.22;692.72;;;5.60;99.90;;;;;;5033233;28;20046;-75
2024/01/23 09:12:17;;;;;;;798.85;733.30;;;5.70;99.90;;;;;;5001478;28;20042;-75
2024/01/23 09:14:43;;;;;;;882.40;804.55;;;5.70;99.90;;;;;;4985502;28;20049;-75
2024/01/23 09:17:09;;;;;;;810.35;742.30;;;5.70;99.90;;;;;;5001589;28;20061;-75
2024/01/23 09:19:34;;;;;;;734.53;675.28;;;5.70;99.90;;;;;;4990102;28;20489;-75
2024/01/23 09:22:00;;;;;;;710.88;655.30;;;5.70;99.90;;;;;;5035671;28;20038;-75
2024/01/23 09:24:26;;;;;;;777.15;711.75;;;5.80;99.90;;;;;;5002918;28;20251;-75
2024/01/23 09:26:54;;;;;;;776.05;712.10;;;5.80;99.90;;;;;;4986895;28;20521;-76
2024/01/23 09:29:20;;;;;;;766.78;702.65;;;5.90;99.90;;;;;;4992586;28;20461;-76
2024/01/23 09:31:47;;;;;;;704.47;646.75;;;5.90;99.90;;;;;;5001476;28;20042;-76
2024/01/23 09:34:13;;;;;;;756.20;694.83;;;5.90;99.90;;;;;;4997524;28;20508;-76
2024/01/23 09:36:39;;;;;;;710.25;652.38;;;5.90;99.90;;;;;;4997647;28;20050;-76
2024/01/23 09:39:05;;;;;;;818.65;749.80;;;6.00;99.90;;;;;;4997517;28;20131;-76
2024/01/23 09:41:34;;;;;;;732.80;674.10;;;6.00;99.90;;;;;;5001138;28;20058;-76
2024/01/23 09:44:00;;;;;;;729.67;672.60;;;6.10;99.90;;;;;;4997426;28;20050;-76
2024/01/23 09:46:26;;;;;;;878.28;796.47;;;6.10;99.90;;;;;;4986806;28;20049;-75
2024/01/23 09:48:52;;;;;;;918.72;831.58;;;6.20;99.90;;;;;;4995632;28;20718;-75
2024/01/23 09:51:19;;;;;;;785.78;720.15;;;6.20;99.90;;;;;;5005186;28;20046;-75
2024/01/23 09:53:46;;;;;;;618.50;569.47;;;6.20;99.90;;;;;;4992125;28;20088;-76
2024/01/23 09:56:12;;;;;;;641.95;592.20;;;6.30;99.90;;;;;;4991630;28;20413;-75
2024/01/23 09:58:38;;;;;;;760.08;699.20;;;6.30;99.90;;;;;;4997177;28;20108;-76
2024/01/23 10:01:05;;;;;;;751.33;688.70;;;6.30;99.90;;;;;;5000540;28;20539;-75
2024/01/23 10:03:34;;;;;;;693.38;636.00;;;6.40;99.90;;;;;;5006396;28;20124;-76
2024/01/23 10:06:00;;;;;;;672.70;618.95;;;6.40;99.90;;;;;;5006006;28;20141;-75
2024/01/23 10:08:26;;;;;;;558.40;517.10;;;6.40;99.90;;;;;;5038073;28;20050;-76
2024/01/23 10:10:58;;;;;;;702.90;646.75;;;6.40;99.90;;;;;;5004078;28;20058;-76
2024/01/23 10:13:24;;;;;;;706.72;646.53;;;6.40;99.90;;;;;;5006529;28;20042;-76
2024/01/23 10:15:53;;;;;;;619.08;570.30;;;6.50;99.90;;;;;;4991038;28;20627;-75
2024/01/23 10:18:19;;;;;;;644.50;595.05;;;6.60;99.90;;;;;;5003788;28;20072;-76
2024/01/23 10:20:46;;;;;;;675.15;620.28;;;6.60;99.90;;;;;;4994635;28;20488;-76
2024/01/23 10:23:11;;;;;;;718.97;661.50;;;6.70;99.90;;;;;;4997415;28;20079;-76
2024/01/23 10:25:39;;;;;;;585.20;539.55;;;6.70;99.90;;;;;;4994830;28;20457;-75
2024/01/23 10:28:09;;;;;;;680.70;626.85;;;6.80;99.90;;;;;;4996448;28;20490;-76
2024/01/23 10:30:36;;;;;;;643.35;592.83;;;6.90;99.90;;;;;;5000891;28;20061;-76
2024/01/23 10:33:05;;;;;;;586.67;539.70;;;6.90;99.90;;;;;;5006134;28;20046;-76
2024/01/23 10:35:33;;;;;;;586.42;541.78;;;7.00;99.90;;;;;;5003308;28;20140;-75
2024/01/23 10:38:02;;;;;;;625.15;576.47;;;7.00;99.90;;;;;;4996474;28;20092;-75
2024/01/23 10:40:29;;;;;;;508.42;470.15;;;7.00;99.90;;;;;;5001835;28;20038;-75
2024/01/23 10:42:56;;;;;;;569.28;525.45;;;7.10;99.90;;;;;;5003439;28;20046;-75
2024/01/23 10:45:23;;;;;;;665.25;611.40;;;7.10;99.90;;;;;;4993364;28;20053;-76
2024/01/23 10:47:49;;;;;;;596.88;548.97;;;7.20;99.90;;;;;;5026101;28;20541;-75
2024/01/23 10:50:15;;;;;;;586.40;539.55;;;7.30;99.90;;;;;;4995252;28;20122;-75
2024/01/23 10:52:46;;;;;;;564.03;520.15;;;7.30;99.90;;;;;;4994267;28;20061;-76
2024/01/23 10:55:13;;;;;;;498.30;461.58;;;7.30;99.90;;;;;;4992830;28;20062;-75
2024/01/23 10:57:39;;;;;;;541.65;500.52;;;7.40;99.90;;;;;;4975847;28;20054;-75
2024/01/23 11:00:10;;;;;;;481.75;445.58;;;7.40;99.90;;;;;;4984556;28;20091;-75
2024/01/23 11:02:50;;;;;;;514.42;475.33;;;7.30;99.90;;;;;;4968862;28;20042;-75
2024/01/23 11:05:20;;;;;;;572.42;528.20;;;7.40;99.90;;;;;;4984246;28;20065;-75
2024/01/23 11:07:58;;;;;;;558.90;515.85;;;7.40;99.90;;;;;;4985449;28;20110;-76
2024/01/23 11:10:27;;;;;;;478.40;442.00;;;7.40;99.90;;;;;;4982863;28;20065;-76
2024/01/23 11:13:03;;;;;;;483.67;447.55;;;7.40;99.90;;;;;;4984819;28;20042;-76
2024/01/23 11:15:29;;;;;;;540.58;496.92;;;7.40;99.90;;;;;;5017170;28;20042;-76
2024/01/23 11:18:23;;;;;;;509.17;471.27;;;7.40;99.90;;;;;;5006867;28;20050;-75
2024/01/23 11:21:05;;;;;;;503.23;464.15;;;7.50;99.90;;;;;;5003039;28;20106;-76
2024/01/23 11:23:31;;;;;;;505.00;468.35;;;7.40;99.90;;;;;;4997551;28;20057;-75
2024/01/23 11:26:00;;;;;;;511.55;474.33;;;7.40;99.90;;;;;;4987097;28;20511;-76
2024/01/23 11:28:26;;;;;;;504.45;466.35;;;7.40;99.90;;;;;;4993229;28;20107;-76
2024/01/23 11:31:07;;;;;;;648.40;596.55;;;7.40;99.90;;;;;;5016544;28;20498;-75
2024/01/23 11:33:34;;;;;;;530.22;490.88;;;7.50;99.90;;;;;;4999498;28;20083;-76
2024/01/23 11:36:14;;;;;;;546.50;504.48;;;7.50;99.90;;;;;;4989504;28;20050;-76
2024/01/23 11:38:42;;;;;;;406.60;378.08;;;7.50;99.90;;;;;;4984379;28;20073;-76
2024/01/23 11:41:14;;;;;;;447.35;414.85;;;7.50;99.90;;;;;;4995572;28;20535;-76
2024/01/23 11:43:40;;;;;;;435.42;403.77;;;7.60;99.90;;;;;;4970414;28;20051;-75
2024/01/23 11:46:12;;;;;;;462.05;429.42;;;7.60;99.90;;;;;;4994992;28;20061;-75
2024/01/23 11:48:39;;;;;;;455.33;423.10;;;7.60;99.90;;;;;;4970446;28;20050;-76
2024/01/23 11:51:05;;;;;;;429.02;398.20;;;7.70;99.90;;;;;;4970266;28;20054;-76
2024/01/23 11:53:34;;;;;;;419.92;389.38;;;7.80;99.90;;;;;;4968341;28;20391;-76
2024/01/23 11:56:02;;;;;;;352.02;327.08;;;7.80;99.90;;;;;;4966824;28;20121;-76
2024/01/23 11:58:28;;;;;;;407.90;378.77;;;7.90;99.90;;;;;;4976413;28;20187;-76
2024/01/23 12:00:56;;;;;;;365.92;340.00;;;7.90;99.90;;;;;;4995483;28;20144;-76
2024/01/23 12:03:22;;;;;;;300.30;279.48;;;7.80;99.90;;;;;;4974974;28;20047;-76
2024/01/23 12:05:50;;;;;;;333.63;309.98;;;7.70;99.90;;;;;;4992904;28;20099;-76
2024/01/23 12:08:16;;;;;;;334.92;312.48;;;7.60;99.90;;;;;;4999964;28;20057;-76
2024/01/23 12:10:43;;;;;;;387.95;359.23;;;7.60;99.90;;;;;;4993816;28;20046;-76
2024/01/23 12:13:09;;;;;;;414.02;384.90;;;7.60;99.90;;;;;;4999415;28;20533;-76
2024/01/23 12:15:35;;;;;;;442.05;410.60;;;7.70;99.90;;;;;;4970979;28;20042;-76